createdAt,value
2023-02-27T00:02:04.261Z,-4.73
2023-02-27T00:04:30.935Z,-4.56
2023-02-27T00:06:57.496Z,-4.58
2023-02-27T00:09:24.048Z,-4.61
2023-02-27T00:11:50.641Z,-4.65
2023-02-27T00:14:17.447Z,-4.64
2023-02-27T00:16:45.416Z,-5.12
2023-02-27T00:19:11.944Z,-4.99
2023-02-27T00:21:38.479Z,-4.75
2023-02-27T00:24:06.240Z,-4.76
2023-02-27T00:26:32.796Z,-4.96
2023-02-27T00:28:59.347Z,-4.88
2023-02-27T00:31:26.862Z,-4.81
2023-02-27T00:33:54.945Z,-4.80
2023-02-27T00:36:21.631Z,-4.83
2023-02-27T00:38:48.331Z,-4.82
2023-02-27T00:41:14.924Z,-4.94
2023-02-27T00:43:41.679Z,-4.87
2023-02-27T00:46:08.248Z,-4.88
2023-02-27T00:48:34.848Z,-4.91
2023-02-27T00:51:04.123Z,-4.95
2023-02-27T00:53:31.050Z,-4.97
2023-02-27T00:55:57.609Z,-4.99
2023-02-27T00:58:24.147Z,-4.94
2023-02-27T01:00:50.771Z,-4.95
2023-02-27T01:03:17.596Z,-4.98
2023-02-27T01:05:44.167Z,-4.97
2023-02-27T01:08:12.215Z,-4.93
2023-02-27T01:10:38.777Z,-4.93
2023-02-27T01:13:06.608Z,-4.98
2023-02-27T01:15:33.927Z,-5.00
2023-02-27T01:18:00.660Z,-5.21
2023-02-27T01:20:28.399Z,-5.06
2023-02-27T01:22:54.956Z,-5.18
2023-02-27T01:25:22.888Z,-4.98
2023-02-27T01:27:49.735Z,-5.04
2023-02-27T01:30:16.677Z,-5.59
2023-02-27T01:32:45.378Z,-5.08
2023-02-27T01:35:12.337Z,-5.12
2023-02-27T01:37:39.169Z,-5.09
2023-02-27T01:40:07.498Z,-5.03
2023-02-27T01:42:35.772Z,-5.04
2023-02-27T01:45:33.357Z,-4.97
2023-02-27T01:48:14.500Z,-5.02
2023-02-27T01:50:46.241Z,-5.08
2023-02-27T01:53:13.557Z,-5.17
2023-02-27T01:55:40.309Z,-5.21
2023-02-27T01:58:10.923Z,-5.31
2023-02-27T02:00:38.072Z,-5.31
2023-02-27T02:03:14.883Z,-5.19
2023-02-27T02:05:42.431Z,-5.22
2023-02-27T02:08:09.877Z,-5.34
2023-02-27T02:10:38.614Z,-5.29
2023-02-27T02:13:05.229Z,-5.32
2023-02-27T02:15:37.565Z,-5.52
2023-02-27T02:18:16.186Z,-5.37
2023-02-27T02:21:13.936Z,-5.46
2023-02-27T02:24:13.711Z,-5.42
2023-02-27T02:26:47.352Z,-5.47
2023-02-27T02:30:04.178Z,-5.36
2023-02-27T02:33:07.585Z,-5.40
2023-02-27T02:36:16.350Z,-5.40
2023-02-27T02:39:00.013Z,-5.45
2023-02-27T02:41:37.561Z,-5.48
2023-02-27T02:44:13.113Z,-5.52
2023-02-27T02:46:47.519Z,-5.96
2023-02-27T02:49:22.292Z,-5.70
2023-02-27T02:52:00.333Z,-5.44
2023-02-27T02:54:34.352Z,-5.45
2023-02-27T02:57:08.610Z,-5.64
2023-02-27T02:59:39.632Z,-5.52
2023-02-27T03:02:09.631Z,-5.77
2023-02-27T03:04:40.647Z,-5.56
2023-02-27T03:07:13.820Z,-5.60
2023-02-27T03:09:46.964Z,-5.69
2023-02-27T03:12:18.172Z,-5.60
2023-02-27T03:14:49.143Z,-5.70
2023-02-27T03:17:20.822Z,-5.65
2023-02-27T03:19:53.336Z,-5.65
2023-02-27T03:22:26.624Z,-5.69
2023-02-27T03:24:58.243Z,-5.71
2023-02-27T03:27:28.391Z,-5.76
2023-02-27T03:30:01.316Z,-5.78
2023-02-27T03:32:36.452Z,-5.80
2023-02-27T03:35:06.619Z,-5.82
2023-02-27T03:37:43.521Z,-5.84
2023-02-27T03:40:20.801Z,-5.94
2023-02-27T03:42:53.439Z,-5.94
2023-02-27T03:45:33.248Z,-5.79
2023-02-27T03:48:00.929Z,-5.96
2023-02-27T03:50:27.674Z,-5.78
2023-02-27T03:52:55.245Z,-5.77
2023-02-27T03:55:27.869Z,-5.81
2023-02-27T03:57:54.780Z,-5.95
2023-02-27T04:00:23.766Z,-5.90
2023-02-27T04:02:52.998Z,-5.87
2023-02-27T04:05:23.744Z,-5.91
2023-02-27T04:08:25.375Z,-6.19
2023-02-27T04:11:07.466Z,-5.97
2023-02-27T04:13:51.248Z,-6.02
2023-02-27T04:16:47.923Z,-6.04
2023-02-27T04:19:29.968Z,-6.03
2023-02-27T04:22:05.276Z,-6.05
2023-02-27T04:24:37.574Z,-6.16
2023-02-27T04:27:14.232Z,-6.07
2023-02-27T04:29:51.644Z,-6.11
2023-02-27T04:32:26.114Z,-6.10
2023-02-27T04:34:57.257Z,-6.15
2023-02-27T04:37:29.464Z,-6.16
2023-02-27T04:40:00.540Z,-6.18
2023-02-27T04:42:32.445Z,-6.33
2023-02-27T04:45:03.076Z,-6.11
2023-02-27T04:47:34.988Z,-6.22
2023-02-27T04:50:09.042Z,-6.14
2023-02-27T04:52:39.882Z,-6.13
2023-02-27T04:55:09.776Z,-5.97
2023-02-27T04:57:42.537Z,-6.00
2023-02-27T05:00:13.287Z,-6.00
2023-02-27T05:02:44.676Z,-5.99
2023-02-27T05:05:15.564Z,-6.25
2023-02-27T05:07:47.217Z,-5.96
2023-02-27T05:10:21.680Z,-6.01
2023-02-27T05:12:53.545Z,-5.98
2023-02-27T05:15:25.372Z,-5.95
2023-02-27T05:17:59.179Z,-6.01
2023-02-27T05:20:31.226Z,-6.01
2023-02-27T05:23:00.477Z,-6.03
2023-02-27T05:25:30.740Z,-6.04
2023-02-27T05:28:06.904Z,-6.05
2023-02-27T05:30:38.444Z,-6.05
2023-02-27T05:33:09.192Z,-6.06
2023-02-27T05:35:43.010Z,-6.05
2023-02-27T05:38:14.471Z,-6.09
2023-02-27T05:40:46.106Z,-5.99
2023-02-27T05:43:18.471Z,-6.07
2023-02-27T05:45:50.130Z,-6.13
2023-02-27T05:48:23.029Z,-6.06
2023-02-27T05:50:51.452Z,-6.14
2023-02-27T05:53:20.900Z,-6.08
2023-02-27T05:55:50.438Z,-6.21
2023-02-27T05:58:23.844Z,-6.23
2023-02-27T06:00:54.078Z,-5.99
2023-02-27T06:03:21.637Z,-6.01
2023-02-27T06:05:50.718Z,-5.99
2023-02-27T06:08:17.332Z,-5.96
2023-02-27T06:10:43.835Z,-5.96
2023-02-27T06:13:10.560Z,-6.00
2023-02-27T06:15:38.540Z,-6.04
2023-02-27T06:18:05.354Z,-6.07
2023-02-27T06:20:32.031Z,-6.08
2023-02-27T06:22:58.606Z,-6.11
2023-02-27T06:25:25.144Z,-6.15
2023-02-27T06:27:51.754Z,-6.17
2023-02-27T06:30:18.741Z,-6.18
2023-02-27T06:32:46.675Z,-6.39
2023-02-27T06:35:13.217Z,-6.18
2023-02-27T06:37:40.044Z,-6.18
2023-02-27T06:40:08.564Z,-6.22
2023-02-27T06:42:35.439Z,-6.16
2023-02-27T06:45:02.026Z,-6.13
2023-02-27T06:47:28.644Z,-6.06
2023-02-27T06:49:56.568Z,-6.04
2023-02-27T06:52:23.218Z,-6.17
2023-02-27T06:54:49.956Z,-6.09
2023-02-27T06:57:16.561Z,-6.10
2023-02-27T06:59:43.272Z,-6.10
2023-02-27T07:02:10.666Z,-6.09
2023-02-27T07:04:37.203Z,-6.09
2023-02-27T07:07:36.275Z,-6.24
2023-02-27T07:09:51.756Z,-6.08
2023-02-27T07:12:18.563Z,-6.08
2023-02-27T07:14:45.242Z,-6.41
2023-02-27T07:17:11.773Z,-6.04
2023-02-27T07:19:38.363Z,-5.99
2023-02-27T07:22:06.246Z,-5.91
2023-02-27T07:24:32.846Z,-5.84
2023-02-27T07:26:59.374Z,-5.84
2023-02-27T07:29:25.993Z,-5.68
2023-02-27T07:31:52.971Z,-5.65
2023-02-27T07:34:19.592Z,-5.60
2023-02-27T07:36:46.172Z,-5.79
2023-02-27T07:39:14.596Z,-5.40
2023-02-27T07:41:41.148Z,-5.34
2023-02-27T07:44:16.725Z,-5.18
2023-02-27T07:46:43.978Z,-5.10
2023-02-27T07:49:10.750Z,-5.25
2023-02-27T07:51:37.335Z,-4.95
2023-02-27T07:54:04.082Z,-4.85
2023-02-27T07:56:32.024Z,-4.80
2023-02-27T07:58:58.551Z,-4.69
2023-02-27T08:01:25.233Z,-4.61
2023-02-27T08:03:53.010Z,-4.52
2023-02-27T08:06:19.626Z,-4.44
2023-02-27T08:08:46.452Z,-4.33
2023-02-27T08:11:13.100Z,-4.25
2023-02-27T08:14:00.508Z,-4.39
2023-02-27T08:16:28.540Z,-4.11
2023-02-27T08:18:55.485Z,-3.96
2023-02-27T08:21:22.335Z,-3.85
2023-02-27T08:23:49.115Z,-3.75
2023-02-27T08:26:15.771Z,-3.69
2023-02-27T08:28:43.663Z,-3.55
2023-02-27T08:31:10.427Z,-3.45
2023-02-27T08:33:37.033Z,-3.33
2023-02-27T08:36:04.051Z,-3.29
2023-02-27T08:38:30.671Z,-3.10
2023-02-27T08:40:57.416Z,-2.98
2023-02-27T08:43:24.111Z,-2.83
2023-02-27T08:45:52.165Z,-2.68
2023-02-27T08:48:18.831Z,-2.58
2023-02-27T08:50:46.128Z,-2.41
2023-02-27T08:53:12.994Z,-2.27
2023-02-27T08:55:39.813Z,-2.19
2023-02-27T08:58:06.448Z,-1.96
2023-02-27T09:00:33.152Z,-1.83
2023-02-27T09:03:01.124Z,-1.64
2023-02-27T09:05:27.965Z,-1.64
2023-02-27T09:07:54.637Z,-1.36
2023-02-27T09:10:21.182Z,-1.15
2023-02-27T09:12:47.704Z,-0.73
2023-02-27T09:15:14.388Z,-0.22
2023-02-27T09:17:40.920Z,0.17
2023-02-27T09:20:10.738Z,0.46
2023-02-27T09:22:37.667Z,0.62
2023-02-27T09:25:04.896Z,0.71
2023-02-27T09:27:31.467Z,0.80
2023-02-27T09:29:58.564Z,0.85
2023-02-27T09:32:26.059Z,0.82
2023-02-27T09:34:53.250Z,1.09
2023-02-27T09:37:21.306Z,0.81
2023-02-27T09:39:47.924Z,1.33
2023-02-27T09:42:18.459Z,1.45
2023-02-27T09:44:47.823Z,1.50
2023-02-27T09:47:20.840Z,1.55
2023-02-27T09:49:56.313Z,1.62
2023-02-27T09:52:25.075Z,1.80
2023-02-27T09:54:51.901Z,1.97
2023-02-27T09:57:28.024Z,2.10
2023-02-27T10:00:00.166Z,2.22
2023-02-27T10:02:40.122Z,2.01
2023-02-27T10:05:21.367Z,2.34
2023-02-27T10:07:59.000Z,2.51
2023-02-27T10:10:31.889Z,2.68
2023-02-27T10:13:13.691Z,2.77
2023-02-27T10:15:45.969Z,2.86
2023-02-27T10:18:27.414Z,2.98
2023-02-27T10:20:57.672Z,3.16
2023-02-27T10:23:35.754Z,3.23
2023-02-27T10:26:03.768Z,3.46
2023-02-27T10:28:32.103Z,3.58
2023-02-27T10:31:01.264Z,3.61
2023-02-27T10:33:33.423Z,3.60
2023-02-27T10:36:02.134Z,3.58
2023-02-27T10:38:35.331Z,3.69
2023-02-27T10:41:03.830Z,3.47
2023-02-27T10:43:33.468Z,3.83
2023-02-27T10:46:01.842Z,3.98
2023-02-27T10:48:30.841Z,4.06
2023-02-27T10:51:21.775Z,4.17
2023-02-27T10:53:49.823Z,4.26
2023-02-27T10:56:23.506Z,4.30
2023-02-27T10:59:02.905Z,4.44
2023-02-27T11:01:42.394Z,4.59
2023-02-27T11:04:10.475Z,4.68
2023-02-27T11:06:37.131Z,4.83
2023-02-27T11:09:18.732Z,4.97
2023-02-27T11:11:45.369Z,5.07
2023-02-27T11:14:26.038Z,5.06
2023-02-27T11:16:54.675Z,5.23
2023-02-27T11:19:26.801Z,5.27
2023-02-27T11:22:02.180Z,5.34
2023-02-27T11:24:30.528Z,5.42
2023-02-27T11:26:59.144Z,5.36
2023-02-27T11:29:25.981Z,5.62
2023-02-27T11:31:55.188Z,5.70
2023-02-27T11:34:26.347Z,5.73
2023-02-27T11:36:55.881Z,5.84
2023-02-27T11:39:31.408Z,5.74
2023-02-27T11:42:07.120Z,5.86
2023-02-27T11:44:50.186Z,5.77
2023-02-27T11:47:23.144Z,5.98
2023-02-27T11:50:24.654Z,6.11
2023-02-27T11:52:59.310Z,6.17
2023-02-27T11:55:27.625Z,5.99
2023-02-27T11:57:59.687Z,6.02
2023-02-27T12:00:31.682Z,5.98
2023-02-27T12:03:02.408Z,5.95
2023-02-27T12:05:33.028Z,5.86
2023-02-27T12:08:03.633Z,5.76
2023-02-27T12:10:39.692Z,5.76
2023-02-27T12:13:13.912Z,6.04
2023-02-27T12:15:45.566Z,6.17
2023-02-27T12:18:18.708Z,6.36
2023-02-27T12:20:54.012Z,6.30
2023-02-27T12:23:26.347Z,6.13
2023-02-27T12:26:00.390Z,6.14
2023-02-27T12:28:35.165Z,6.41
2023-02-27T12:31:17.012Z,6.55
2023-02-27T12:33:49.642Z,6.65
2023-02-27T12:36:16.418Z,6.56
2023-02-27T12:38:43.093Z,6.40
2023-02-27T12:41:28.874Z,6.26
2023-02-27T12:44:10.623Z,6.17
2023-02-27T12:46:45.026Z,6.31
2023-02-27T12:49:28.973Z,6.47
2023-02-27T12:52:05.033Z,6.49
2023-02-27T12:54:46.836Z,6.25
2023-02-27T12:57:27.741Z,6.33
2023-02-27T13:00:05.789Z,6.38
2023-02-27T13:02:49.572Z,6.49
2023-02-27T13:05:33.459Z,6.42
2023-02-27T13:08:09.547Z,6.34
2023-02-27T13:10:41.513Z,6.22
2023-02-27T13:13:13.360Z,6.21
2023-02-27T13:15:43.445Z,6.18
2023-02-27T13:18:30.475Z,6.24
2023-02-27T13:21:03.037Z,6.39
2023-02-27T13:23:36.321Z,6.41
2023-02-27T13:26:13.430Z,6.74
2023-02-27T13:28:41.672Z,6.68
2023-02-27T13:31:15.564Z,6.85
2023-02-27T13:33:46.308Z,7.09
2023-02-27T13:36:17.520Z,7.20
2023-02-27T13:38:45.917Z,7.41
2023-02-27T13:41:36.179Z,7.63
2023-02-27T13:44:48.097Z,7.72
2023-02-27T13:47:40.963Z,7.83
2023-02-27T13:50:45.072Z,7.94
2023-02-27T13:53:17.787Z,7.98
2023-02-27T13:55:44.533Z,7.93
2023-02-27T13:58:17.407Z,7.73
2023-02-27T14:00:55.108Z,7.40
2023-02-27T14:03:25.030Z,7.31
2023-02-27T14:05:55.988Z,7.14
2023-02-27T14:08:25.180Z,7.06
2023-02-27T14:10:56.654Z,6.97
2023-02-27T14:14:05.574Z,6.78
2023-02-27T14:17:06.600Z,6.80
2023-02-27T14:19:51.091Z,6.98
2023-02-27T14:22:56.415Z,7.20
2023-02-27T14:25:30.663Z,7.26
2023-02-27T14:27:59.059Z,7.31
2023-02-27T14:30:34.577Z,7.35
2023-02-27T14:33:11.377Z,7.35
2023-02-27T14:35:39.564Z,7.34
2023-02-27T14:38:10.742Z,7.17
2023-02-27T14:40:47.692Z,7.40
2023-02-27T14:43:24.504Z,7.14
2023-02-27T14:46:07.709Z,7.25
2023-02-27T14:48:34.417Z,7.01
2023-02-27T14:51:02.363Z,7.17
2023-02-27T14:53:28.977Z,7.32
2023-02-27T14:55:57.085Z,7.48
2023-02-27T14:58:24.510Z,7.59
2023-02-27T15:01:00.398Z,7.53
2023-02-27T15:03:32.688Z,7.43
2023-02-27T15:06:03.689Z,7.23
2023-02-27T15:08:33.528Z,7.08
2023-02-27T15:11:00.903Z,7.01
2023-02-27T15:13:29.629Z,6.94
2023-02-27T15:16:41.085Z,6.84
2023-02-27T15:19:14.883Z,6.75
2023-02-27T15:21:45.069Z,6.79
2023-02-27T15:24:23.095Z,6.75
2023-02-27T15:26:53.928Z,6.60
2023-02-27T15:29:22.331Z,6.57
2023-02-27T15:31:49.452Z,6.66
2023-02-27T15:34:16.521Z,6.60
2023-02-27T15:36:48.503Z,6.63
2023-02-27T15:39:18.489Z,6.64
2023-02-27T15:41:47.043Z,6.59
2023-02-27T15:44:14.898Z,6.50
2023-02-27T15:46:42.394Z,6.42
2023-02-27T15:49:16.841Z,6.29
2023-02-27T15:51:43.836Z,6.21
2023-02-27T15:54:13.552Z,6.00
2023-02-27T15:56:40.786Z,6.07
2023-02-27T15:59:07.579Z,6.05
2023-02-27T16:01:34.825Z,5.97
2023-02-27T16:04:05.029Z,5.94
2023-02-27T16:06:33.993Z,5.89
2023-02-27T16:09:02.699Z,5.70
2023-02-27T16:11:33.612Z,5.68
2023-02-27T16:14:00.774Z,5.63
2023-02-27T16:16:30.200Z,5.47
2023-02-27T16:18:59.619Z,5.51
2023-02-27T16:21:27.495Z,5.37
2023-02-27T16:23:54.617Z,5.37
2023-02-27T16:26:27.021Z,5.31
2023-02-27T16:28:57.406Z,5.23
2023-02-27T16:31:27.811Z,5.20
2023-02-27T16:33:56.833Z,5.07
2023-02-27T16:36:25.638Z,4.96
2023-02-27T16:38:52.194Z,4.99
2023-02-27T16:41:21.021Z,4.94
2023-02-27T16:43:49.529Z,4.77
2023-02-27T16:46:18.957Z,4.87
2023-02-27T16:48:45.784Z,4.81
2023-02-27T16:51:16.744Z,4.60
2023-02-27T16:53:43.868Z,4.66
2023-02-27T16:56:11.744Z,4.45
2023-02-27T16:58:38.559Z,4.44
2023-02-27T17:01:05.921Z,4.52
2023-02-27T17:03:34.212Z,4.45
2023-02-27T17:06:01.124Z,4.13
2023-02-27T17:08:27.840Z,4.34
2023-02-27T17:10:54.399Z,4.31
2023-02-27T17:13:21.069Z,4.31
2023-02-27T17:15:47.590Z,4.17
2023-02-27T17:18:15.040Z,4.10
2023-02-27T17:20:43.006Z,4.05
2023-02-27T17:23:13.423Z,3.71
2023-02-27T17:25:43.306Z,3.97
2023-02-27T17:28:12.594Z,3.93
2023-02-27T17:30:39.894Z,3.91
2023-02-27T17:33:06.761Z,3.83
2023-02-27T17:35:33.587Z,3.78
2023-02-27T17:38:01.519Z,3.72
2023-02-27T17:40:28.295Z,3.66
2023-02-27T17:42:54.847Z,3.60
2023-02-27T17:45:21.470Z,3.61
2023-02-27T17:47:48.345Z,3.53
2023-02-27T17:50:14.979Z,3.50
2023-02-27T17:52:41.901Z,3.50
2023-02-27T17:55:11.101Z,3.43
2023-02-27T17:57:39.237Z,3.38
2023-02-27T18:00:07.451Z,3.33
2023-02-27T18:02:34.117Z,3.28
2023-02-27T18:05:00.732Z,3.23
2023-02-27T18:07:27.373Z,3.18
2023-02-27T18:09:53.922Z,3.11
2023-02-27T18:12:21.841Z,3.00
2023-02-27T18:14:48.546Z,2.92
2023-02-27T18:17:15.076Z,2.80
2023-02-27T18:19:42.704Z,2.70
2023-02-27T18:22:09.684Z,2.66
2023-02-27T18:24:36.669Z,2.43
2023-02-27T18:27:03.759Z,2.40
2023-02-27T18:29:31.831Z,2.24
2023-02-27T18:31:58.506Z,2.06
2023-02-27T18:34:25.151Z,1.91
2023-02-27T18:36:51.691Z,1.80
2023-02-27T18:39:18.396Z,1.68
2023-02-27T18:41:45.193Z,1.59
2023-02-27T18:44:11.783Z,1.51
2023-02-27T18:46:39.650Z,1.24
2023-02-27T18:49:06.535Z,1.36
2023-02-27T18:51:33.293Z,1.33
2023-02-27T18:53:59.906Z,1.27
2023-02-27T18:56:28.368Z,1.01
2023-02-27T18:58:56.853Z,0.99
2023-02-27T19:01:26.240Z,0.70
2023-02-27T19:03:54.679Z,0.72
2023-02-27T19:06:21.551Z,0.61
2023-02-27T19:08:48.161Z,0.37
2023-02-27T19:11:22.187Z,0.43
2023-02-27T19:13:48.805Z,0.35
2023-02-27T19:16:15.389Z,0.31
2023-02-27T19:18:42.199Z,0.25
2023-02-27T19:21:10.122Z,0.16
2023-02-27T19:23:37.004Z,0.12
2023-02-27T19:26:03.666Z,0.05
2023-02-27T19:28:30.323Z,-0.25
2023-02-27T19:30:56.901Z,-0.14
2023-02-27T19:33:23.823Z,-0.18
2023-02-27T19:35:50.535Z,-0.28
2023-02-27T19:38:18.484Z,-0.35
2023-02-27T19:40:45.004Z,-0.39
2023-02-27T19:43:11.574Z,-0.50
2023-02-27T19:45:40.358Z,-0.40
2023-02-27T19:48:07.652Z,-0.46
2023-02-27T19:50:34.276Z,-0.48
2023-02-27T19:53:00.913Z,-0.44
2023-02-27T19:55:29.039Z,-0.46
2023-02-27T19:57:55.632Z,-0.49
2023-02-27T20:00:22.892Z,-0.48
2023-02-27T20:02:49.619Z,-0.45
2023-02-27T20:05:16.276Z,-0.48
2023-02-27T20:07:42.984Z,-0.47
2023-02-27T20:10:11.189Z,-0.46
2023-02-27T20:12:39.205Z,-0.40
2023-02-27T20:15:06.898Z,-0.38
2023-02-27T20:17:33.519Z,-0.31
2023-02-27T20:20:00.365Z,-0.61
2023-02-27T20:22:27.368Z,-0.27
2023-02-27T20:24:55.467Z,-0.30
2023-02-27T20:27:22.080Z,-0.31
2023-02-27T20:29:52.901Z,-0.36
2023-02-27T20:32:20.013Z,-0.39
2023-02-27T20:34:46.650Z,-0.67
2023-02-27T20:37:13.258Z,-0.52
2023-02-27T20:39:39.813Z,-0.51
2023-02-27T20:42:06.593Z,-0.50
2023-02-27T20:44:33.299Z,-0.54
2023-02-27T20:47:01.253Z,-0.62
2023-02-27T20:49:27.867Z,-0.75
2023-02-27T20:51:54.512Z,-0.72
2023-02-27T20:54:21.144Z,-0.80
2023-02-27T20:56:49.516Z,-0.92
2023-02-27T20:59:16.908Z,-0.99
2023-02-27T21:01:45.644Z,-1.02
2023-02-27T21:04:13.639Z,-0.90
2023-02-27T21:06:40.257Z,-0.94
2023-02-27T21:09:06.977Z,-1.03
2023-02-27T21:11:34.320Z,-1.09
2023-02-27T21:14:05.871Z,-1.16
2023-02-27T21:16:32.562Z,-1.23
2023-02-27T21:18:59.157Z,-1.31
2023-02-27T21:21:30.096Z,-1.37
2023-02-27T21:23:58.112Z,-1.44
2023-02-27T21:26:26.679Z,-1.49
2023-02-27T21:28:55.811Z,-1.51
2023-02-27T21:31:24.536Z,-1.55
2023-02-27T21:33:51.793Z,-1.59
2023-02-27T21:36:23.582Z,-1.76
2023-02-27T21:38:55.502Z,-1.60
2023-02-27T21:41:22.353Z,-1.65
2023-02-27T21:43:48.884Z,-1.67
2023-02-27T21:46:15.693Z,-1.66
2023-02-27T21:48:42.297Z,-1.59
2023-02-27T21:51:09.363Z,-1.84
2023-02-27T21:53:36.074Z,-1.78
2023-02-27T21:56:05.776Z,-1.74
2023-02-27T21:58:33.378Z,-1.82
2023-02-27T22:01:00.324Z,-1.91
2023-02-27T22:03:27.508Z,-1.91
2023-02-27T22:05:54.063Z,-1.93
2023-02-27T22:08:20.805Z,-2.04
2023-02-27T22:10:47.381Z,-1.97
2023-02-27T22:13:15.824Z,-2.03
2023-02-27T22:15:42.548Z,-2.08
2023-02-27T22:18:09.283Z,-2.13
2023-02-27T22:20:39.471Z,-2.16
2023-02-27T22:23:06.261Z,-2.31
2023-02-27T22:25:32.832Z,-2.15
2023-02-27T22:27:59.430Z,-2.26
2023-02-27T22:30:28.048Z,-2.30
2023-02-27T22:32:55.143Z,-2.58
2023-02-27T22:35:22.041Z,-2.30
2023-02-27T22:37:49.830Z,-2.28
2023-02-27T22:40:16.992Z,-2.58
2023-02-27T22:42:43.545Z,-2.41
2023-02-27T22:45:11.178Z,-2.40
2023-02-27T22:47:39.092Z,-2.41
2023-02-27T22:50:07.006Z,-2.36
2023-02-27T22:52:34.739Z,-2.38
2023-02-27T22:55:01.323Z,-2.42
2023-02-27T22:57:27.842Z,-2.42
2023-02-27T22:59:54.665Z,-2.50
2023-02-27T23:02:21.209Z,-2.52
2023-02-27T23:04:49.135Z,-2.59
2023-02-27T23:07:15.816Z,-2.64
2023-02-27T23:09:42.487Z,-2.69
2023-02-27T23:12:09.016Z,-2.82
2023-02-27T23:14:36.053Z,-2.60
2023-02-27T23:17:02.602Z,-2.65
2023-02-27T23:19:29.156Z,-3.02
2023-02-27T23:21:57.097Z,-2.93
2023-02-27T23:24:23.655Z,-2.93
2023-02-27T23:26:52.117Z,-2.77
2023-02-27T23:29:19.201Z,-2.78
2023-02-27T23:31:45.949Z,-3.03
2023-02-27T23:34:12.593Z,-2.89
2023-02-27T23:36:39.778Z,-2.98
2023-02-27T23:39:08.332Z,-2.99
2023-02-27T23:41:35.593Z,-3.01
2023-02-27T23:44:02.198Z,-3.08
2023-02-27T23:46:29.091Z,-3.03
2023-02-27T23:48:56.024Z,-3.02
2023-02-27T23:51:22.537Z,-3.06
2023-02-27T23:53:49.074Z,-3.18
2023-02-27T23:56:19.340Z,-3.13
2023-02-27T23:58:46.614Z,-3.18
